Jolyn — PJWG — position and weather

sailwx.info

Track history (hours):
 
Tides and Currents Weather Stations Pressure Air Temp Water Temp Dewpoint Dewpoint Depression Visibility Wind Speed Wind Dir Waves Ship Positions

Jolyn

Last reported at 2017-Jun-23 08:27 UTC. Time now 2017-Jun-23 08:42 UTC.
Position N 53°29' E 014°37'.

Length 89 m; draft 5.6 m.

Type: Cargo ship. MMSI: 306813000.

Date/timePositionNaut miles runAvg speedWind from/ knotsBaromVisibWave heightAir tempDewpointWater temp
2017-Jun-23 08:27N 53°29' E 014°37'0 0.0
2017-Jun-23 08:00N 53°29' E 014°37'0 0.0
2017-Jun-23 07:30N 53°29' E 014°37'0 0.0
2017-Jun-23 07:00N 53°29' E 014°37'0 0.0
2017-Jun-23 06:30N 53°29' E 014°37'0 0.0
2017-Jun-23 06:00N 53°29' E 014°37'0 0.0
2017-Jun-23 05:27N 53°29' E 014°37'0 0.0
2017-Jun-23 05:00N 53°29' E 014°37'0 0.0
2017-Jun-23 04:30N 53°29' E 014°37'0 0.0
2017-Jun-23 04:00N 53°29' E 014°37'0 0.0
2017-Jun-23 03:27N 53°29' E 014°37'0 0.0
2017-Jun-23 02:57N 53°29' E 014°37'0 0.0
2017-Jun-23 02:27N 53°29' E 014°37'0 0.0
2017-Jun-23 02:00N 53°29' E 014°37'0 0.0
2017-Jun-23 01:27N 53°29' E 014°37'0 0.0
2017-Jun-23 00:57N 53°29' E 014°37'0 0.0
2017-Jun-23 00:24N 53°29' E 014°37'0 0.0
2017-Jun-23 00:00N 53°29' E 014°37'0 0.0
2017-Jun-22 23:30N 53°29' E 014°37'0 0.0
2017-Jun-22 23:00N 53°29' E 014°37'0 0.0
2017-Jun-22 22:30N 53°29' E 014°37'0 0.0
2017-Jun-22 22:00N 53°29' E 014°37'0 0.0
2017-Jun-22 21:30N 53°29' E 014°37'0 0.0
2017-Jun-22 21:00N 53°29' E 014°37'0 0.0
2017-Jun-22 20:30N 53°29' E 014°37'0 0.0
2017-Jun-22 20:00N 53°29' E 014°37'0 0.0
2017-Jun-22 19:30N 53°29' E 014°37'0 0.0
2017-Jun-22 19:00N 53°29' E 014°37'0 0.0
2017-Jun-22 18:30N 53°29' E 014°37'0 0.0
2017-Jun-22 18:00N 53°29' E 014°37'0 0.0
2017-Jun-22 17:30N 53°29' E 014°37'0 0.0
2017-Jun-22 17:00N 53°29' E 014°37'0 0.0
2017-Jun-22 16:30N 53°29' E 014°37'40 7.4
2017-Jun-22 11:05N 54°08' E 014°28'6 8.7
2017-Jun-22 10:22N 54°14' E 014°34'18 9.7
2017-Jun-22 08:30N 54°28' E 014°53'510.1
2017-Jun-22 07:59N 54°32' E 014°59'510.2
2017-Jun-22 07:30N 54°36' E 015°04'510.1
2017-Jun-22 07:00N 54°40' E 015°09'510.1
2017-Jun-22 06:30N 54°44' E 015°14'810.0
2017-Jun-22 05:45N 54°50' E 015°22'3 9.9
2017-Jun-22 05:29N 54°52' E 015°25'710.0
2017-Jun-22 04:50N 54°57' E 015°32'610.2
2017-Jun-22 04:16N 55°02' E 015°38'410.4
2017-Jun-22 03:54N 55°05' E 015°42'610.7
2017-Jun-22 03:17N 55°10' E 015°49'410.3
2017-Jun-22 02:53N 55°13' E 015°54'410.1
2017-Jun-22 02:30N 55°16' E 015°58'510.0
2017-Jun-22 02:00N 55°20' E 016°04'510.0
2017-Jun-22 01:30N 55°24' E 016°09'5 9.9
2017-Jun-22 01:00N 55°28' E 016°15'510.0
2017-Jun-22 00:30N 55°32' E 016°20'510.0
2017-Jun-22 00:00N 55°36' E 016°25'5 9.9
2017-Jun-21 23:30N 55°39' E 016°31'5 9.9
2017-Jun-21 23:00N 55°43' E 016°36'5 9.8
2017-Jun-21 22:30N 55°47' E 016°41'5 9.7
2017-Jun-21 22:00N 55°51' E 016°47'5 9.6
2017-Jun-21 21:30N 55°55' E 016°52'5 9.6
2017-Jun-21 21:00N 55°59' E 016°57'5 9.6
2017-Jun-21 20:30N 56°02' E 017°03'7 9.5
2017-Jun-21 19:47N 56°08' E 017°10'3 9.4
2017-Jun-21 19:28N 56°10' E 017°14'4 9.4
2017-Jun-21 19:00N 56°13' E 017°19'5 9.5
2017-Jun-21 18:29N 56°16' E 017°26'5 9.7
2017-Jun-21 17:58N 56°20' E 017°32'5 9.8
2017-Jun-21 17:28N 56°24' E 017°38'510.0
2017-Jun-21 17:00N 56°27' E 017°44'610.0
2017-Jun-21 16:25N 56°31' E 017°52'410.0
2017-Jun-21 16:00N 56°34' E 017°57'15210.3
2017-Jun-21 01:17N 58°35' E 020°49'410.5
2017-Jun-21 00:54N 58°38' E 020°54'410.6
2017-Jun-21 00:30N 58°41' E 020°59'510.6
2017-Jun-21 00:00N 58°45' E 021°05'510.4
2017-Jun-20 23:30N 58°49' E 021°12'510.4
2017-Jun-20 23:00N 58°53' E 021°18'510.2
2017-Jun-20 22:30N 58°57' E 021°24'510.0
2017-Jun-20 22:00N 59°01' E 021°30'5 9.9
2017-Jun-20 21:31N 59°05' E 021°36'5 9.7
2017-Jun-20 21:00N 59°09' E 021°42'5 9.5
2017-Jun-20 20:30N 59°12' E 021°49'5 9.2
2017-Jun-20 20:00N 59°15' E 021°55'5 9.1
2017-Jun-20 19:30N 59°18' E 022°02'5 9.4
2017-Jun-20 19:00N 59°21' E 022°10'5 9.5
2017-Jun-20 18:30N 59°24' E 022°17'5 9.7
2017-Jun-20 18:00N 59°27' E 022°25'5 9.5
2017-Jun-20 17:30N 59°29' E 022°33'5 9.4
2017-Jun-20 17:01N 59°31' E 022°41'5 9.6
2017-Jun-20 16:30N 59°33' E 022°50'5 9.2
2017-Jun-20 16:00N 59°35' E 022°58'4 8.9
2017-Jun-20 15:30N 59°36' E 023°07'4 8.8
2017-Jun-20 15:01N 59°37' E 023°15'9 9.1
2017-Jun-20 14:00N 59°40' E 023°32'4 8.9
2017-Jun-20 13:31N 59°42' E 023°40'4 8.9
2017-Jun-20 13:00N 59°44' E 023°48'5 9.0
2017-Jun-20 12:30N 59°46' E 023°56'5 9.0
2017-Jun-20 12:00N 59°47' E 024°05'5 9.1
2017-Jun-20 11:30N 59°49' E 024°13'5 9.2
2017-Jun-20 11:00N 59°51' E 024°22'5 9.3
2017-Jun-20 10:30N 59°52' E 024°30'5 9.4
2017-Jun-20 10:00N 59°54' E 024°39'5 9.4
2017-Jun-20 09:31N 59°55' E 024°48'5 9.6
2017-Jun-20 09:01N 59°56' E 024°58'5 9.8
2017-Jun-20 08:31N 59°56' E 025°07'510.1
2017-Jun-20 08:00N 59°56' E 025°18'510.4
2017-Jun-20 07:31N 59°55' E 025°28'510.3
2017-Jun-20 07:00N 59°55' E 025°38'510.2
2017-Jun-20 06:31N 59°56' E 025°48'510.2
2017-Jun-20 06:00N 59°57' E 025°58'510.2
2017-Jun-20 05:31N 59°58' E 026°08'510.2
2017-Jun-20 05:01N 59°59' E 026°18'510.2
2017-Jun-20 04:30N 60°01' E 026°28'510.0
2017-Jun-20 04:00N 60°01' E 026°38'510.3
2017-Jun-20 03:30N 60°01' E 026°48'510.2
2017-Jun-20 03:00N 59°60' E 026°58'5 9.8
2017-Jun-20 02:30N 60°01' E 027°08'510.4
2017-Jun-20 02:01N 60°04' E 027°16'510.3
2017-Jun-20 01:30N 60°06' E 027°25'510.1
2017-Jun-20 01:00N 60°09' E 027°34'510.1
2017-Jun-20 00:30N 60°11' E 027°43'5 9.3
2017-Jun-20 00:00N 60°11' E 027°52'510.0
2017-Jun-19 23:30N 60°10' E 028°02'4 8.7
2017-Jun-19 23:00N 60°06' E 028°07'510.1
2017-Jun-19 22:30N 60°01' E 028°09'510.0
2017-Jun-19 22:01N 59°56' E 028°11'5 9.9
2017-Jun-19 21:31N 59°51' E 028°12'5 9.8
2017-Jun-19 21:01N 59°47' E 028°14'4 9.0
2017-Jun-19 20:30N 59°43' E 028°18'3 6.0
2017-Jun-19 20:00N 59°43' E 028°24'1 2.7
2017-Jun-19 19:27N 59°42' E 028°26'0 0.0
2017-Jun-19 19:00N 59°42' E 028°26'0 0.0
2017-Jun-19 18:30N 59°42' E 028°26'0 0.0
2017-Jun-19 18:00N 59°42' E 028°26'0 0.0
2017-Jun-19 17:30N 59°42' E 028°26'0 0.0
2017-Jun-19 17:00N 59°42' E 028°26'0 0.0
2017-Jun-19 16:30N 59°42' E 028°26'0 0.0
2017-Jun-19 16:00N 59°42' E 028°26'0 0.0
2017-Jun-19 15:30N 59°42' E 028°26'0 0.0
2017-Jun-19 15:00N 59°42' E 028°26'0 0.0
2017-Jun-19 14:00N 59°42' E 028°26'0 0.0
2017-Jun-19 13:30N 59°42' E 028°26'0 0.0
2017-Jun-19 13:00N 59°42' E 028°26'0 0.0
2017-Jun-19 12:30N 59°42' E 028°26'0 0.0
2017-Jun-19 12:00N 59°42' E 028°26'0 0.0
2017-Jun-19 11:30N 59°42' E 028°26'0 0.0
2017-Jun-19 11:00N 59°42' E 028°26'0 0.0
2017-Jun-19 10:30N 59°42' E 028°26'0 0.0
2017-Jun-19 09:59N 59°42' E 028°26'0 0.0
2017-Jun-19 09:30N 59°42' E 028°26'0 0.0
2017-Jun-19 08:59N 59°42' E 028°26'0 0.0
2017-Jun-19 08:30N 59°42' E 028°26'0 0.0
2017-Jun-19 08:00N 59°42' E 028°26'0 0.0
2017-Jun-19 07:30N 59°42' E 028°26'0 0.0
2017-Jun-19 07:00N 59°42' E 028°26'2 4.4
2017-Jun-19 06:30N 59°42' E 028°21'4 8.0
2017-Jun-19 06:00N 59°45' E 028°15'510.7
2017-Jun-19 05:30N 59°50' E 028°11'611.3
2017-Jun-19 05:00N 59°55' E 028°09'611.3
2017-Jun-19 04:30N 60°01' E 028°07'611.4
2017-Jun-19 04:00N 60°06' E 028°05'5 9.8
2017-Jun-19 03:30N 60°09' E 027°57'611.2
2017-Jun-19 03:00N 60°11' E 027°46'611.5
2017-Jun-19 02:30N 60°08' E 027°36'611.4
2017-Jun-19 02:00N 60°05' E 027°27'611.3
2017-Jun-19 01:30N 60°02' E 027°17'611.3
2017-Jun-19 01:00N 59°59' E 027°07'510.5
2017-Jun-19 00:30N 59°58' E 026°57'611.3
2017-Jun-19 00:00N 59°59' E 026°46'510.9
2017-Jun-18 23:30N 59°59' E 026°35'611.1
2017-Jun-18 23:00N 59°57' E 026°24'611.3
2017-Jun-18 22:30N 59°55' E 026°14'611.2
2017-Jun-18 22:00N 59°53' E 026°03'611.2
2017-Jun-18 21:30N 59°51' E 025°53'611.4
2017-Jun-18 21:00N 59°49' E 025°42'611.2
2017-Jun-18 20:30N 59°47' E 025°32'611.5
2017-Jun-18 20:00N 59°47' E 025°20'611.6
2017-Jun-18 19:30N 59°47' E 025°09'611.5
2017-Jun-18 19:00N 59°46' E 024°57'611.3
2017-Jun-18 18:30N 59°45' E 024°47'611.4
2017-Jun-18 18:00N 59°42' E 024°36'510.6
2017-Jun-18 17:30N 59°39' E 024°28'5 9.9
2017-Jun-18 17:00N 59°34' E 024°25'510.1
2017-Jun-18 16:30N 59°31' E 024°32'5 9.7
2017-Jun-18 16:00N 59°27' E 024°39'1 1.5
2017-Jun-18 15:30N 59°27' E 024°40'0 0.0
2017-Jun-18 15:00N 59°27' E 024°40'0 0.0
2017-Jun-18 14:30N 59°27' E 024°40'0 0.0
2017-Jun-18 14:00N 59°27' E 024°40'0 0.0
2017-Jun-18 13:27N 59°27' E 024°40'0 0.0
2017-Jun-18 12:57N 59°27' E 024°40'0 0.0
2017-Jun-18 12:30N 59°27' E 024°40'0 0.0
2017-Jun-18 11:57N 59°27' E 024°40'0 0.0
2017-Jun-18 11:30N 59°27' E 024°40'0 0.0
2017-Jun-18 11:00N 59°27' E 024°40'0 0.0
2017-Jun-18 10:27N 59°27' E 024°40'0 0.0
2017-Jun-18 10:00N 59°27' E 024°40'0 0.0
2017-Jun-18 09:30N 59°27' E 024°40'0 0.0
2017-Jun-18 09:00N 59°27' E 024°40'0 0.0
2017-Jun-18 08:30N 59°27' E 024°40'0 0.0
2017-Jun-18 08:00N 59°27' E 024°40'0 0.0
2017-Jun-18 07:30N 59°27' E 024°40'0 0.1
2017-Jun-18 07:00N 59°27' E 024°40'1 2.8
2017-Jun-18 06:30N 59°28' E 024°38'4 8.9
2017-Jun-18 06:00N 59°30' E 024°30'4 7.9
2017-Jun-18 05:30N 59°30' E 024°22'4 7.2
2017-Jun-18 05:00N 59°29' E 024°15'4 7.3
2017-Jun-18 04:30N 59°29' E 024°08'4 7.4
2017-Jun-18 04:00N 59°29' E 024°01'4 7.7
2017-Jun-18 03:30N 59°28' E 023°53'4 8.7
2017-Jun-18 03:01N 59°28' E 023°45'4 9.0
2017-Jun-18 02:30N 59°28' E 023°36'5 9.1
2017-Jun-18 02:01N 59°27' E 023°27'4 9.0
2017-Jun-18 01:31N 59°27' E 023°18'4 8.8
2017-Jun-18 01:01N 59°26' E 023°10'4 8.7
2017-Jun-18 00:31N 59°26' E 023°01'4 8.9
2017-Jun-18 00:00N 59°25' E 022°52'5 9.1
2017-Jun-17 23:31N 59°25' E 022°43'4 8.5
2017-Jun-17 23:01N 59°24' E 022°36'4 8.8
2017-Jun-17 22:31N 59°21' E 022°29'4 8.7
2017-Jun-17 22:00N 59°18' E 022°22'4 8.9
2017-Jun-17 21:30N 59°15' E 022°15'4 8.8
2017-Jun-17 21:01N 59°13' E 022°08'4 8.8
2017-Jun-17 20:31N 59°10' E 022°02'4 8.7
2017-Jun-17 20:01N 59°07' E 021°55'510.1
2017-Jun-17 19:31N 59°04' E 021°47'5 9.7
2017-Jun-17 19:00N 59°00' E 021°42'510.3
2017-Jun-17 18:30N 58°56' E 021°36'510.3
2017-Jun-17 18:01N 58°52' E 021°29'510.4
2017-Jun-17 17:31N 58°48' E 021°23'510.5
2017-Jun-17 17:01N 58°44' E 021°17'510.6
2017-Jun-17 16:31N 58°40' E 021°11'510.6
2017-Jun-17 16:00N 58°35' E 021°04'510.6
2017-Jun-17 15:30N 58°31' E 020°58'710.5
2017-Jun-17 14:49N 58°26' E 020°50'410.4
2017-Jun-17 14:25N 58°22' E 020°45'17010.3
2017-Jun-16 21:54N 56°16' E 017°13'610.8
2017-Jun-16 21:23N 56°13' E 017°05'410.5
2017-Jun-16 21:00N 56°10' E 016°60'610.5
2017-Jun-16 20:28N 56°07' E 016°52'510.6
2017-Jun-16 20:00N 56°04' E 016°45'510.6
2017-Jun-16 19:30N 56°01' E 016°37'510.5
2017-Jun-16 19:00N 55°59' E 016°28'510.5
2017-Jun-16 18:30N 55°57' E 016°19'510.8
2017-Jun-16 18:00N 55°56' E 016°10'510.5
2017-Jun-16 17:30N 55°55' E 016°01'510.6
2017-Jun-16 17:00N 55°53' E 015°52'510.6
2017-Jun-16 16:30N 55°53' E 015°43'510.6
2017-Jun-16 16:00N 55°53' E 015°33'510.6
2017-Jun-16 15:30N 55°53' E 015°24'510.5
2017-Jun-16 15:00N 55°53' E 015°14'1010.1
2017-Jun-16 14:00N 55°54' E 014°56'5 9.8
2017-Jun-16 13:30N 55°55' E 014°48'7 9.6
2017-Jun-16 12:48N 55°58' E 014°37'3 9.1
2017-Jun-16 12:29N 55°60' E 014°33'2 0.3
2017-Jun-16 04:20N 56°02' E 014°35'0 0.0
2017-Jun-16 03:44N 56°02' E 014°35'0 0.0
2017-Jun-16 03:26N 56°02' E 014°35'0 0.0
2017-Jun-16 02:56N 56°02' E 014°35'0 0.0
2017-Jun-16 02:26N 56°02' E 014°35'0 0.0
2017-Jun-16 01:56N 56°02' E 014°35'0 0.0
2017-Jun-16 01:29N 56°02' E 014°35'0 0.0
2017-Jun-16 00:59N 56°02' E 014°35'0 0.0
2017-Jun-16 00:29N 56°02' E 014°35'0 0.0
2017-Jun-15 23:56N 56°02' E 014°35'0 0.0
2017-Jun-15 23:26N 56°02' E 014°35'0 0.0
2017-Jun-15 22:59N 56°02' E 014°35'0 0.0
2017-Jun-15 22:27N 56°02' E 014°35'0 0.0
2017-Jun-15 21:56N 56°02' E 014°35'0 0.0
2017-Jun-15 21:29N 56°02' E 014°35'0 0.0
2017-Jun-15 20:35N 56°02' E 014°35'0 0.0
2017-Jun-15 20:27N 56°02' E 014°35'0 0.0
2017-Jun-15 19:56N 56°02' E 014°35'0 0.0
2017-Jun-15 19:29N 56°02' E 014°35'0 0.0
2017-Jun-15 18:59N 56°02' E 014°35'0 0.0
2017-Jun-15 18:29N 56°02' E 014°35'0 0.0
2017-Jun-15 17:59N 56°02' E 014°35'0 0.0
2017-Jun-15 17:26N 56°02' E 014°35'0 0.0
2017-Jun-15 16:59N 56°02' E 014°35'0 0.0
2017-Jun-15 16:29N 56°02' E 014°35'0 0.0
2017-Jun-15 15:59N 56°02' E 014°35'0 0.0
2017-Jun-15 15:23N 56°02' E 014°35'0 0.0
2017-Jun-15 13:44N 56°02' E 014°35'0 0.0
2017-Jun-15 13:30N 56°02' E 014°35'0 0.0
2017-Jun-15 13:01N 56°02' E 014°35'0 0.0
2017-Jun-15 12:30N 56°02' E 014°35'0 0.5
2017-Jun-15 12:00N 56°02' E 014°35'3 6.7
2017-Jun-15 11:30N 55°58' E 014°35'5 9.5
2017-Jun-15 11:00N 55°54' E 014°38'511.1
2017-Jun-15 10:30N 55°49' E 014°38'611.0
2017-Jun-15 10:00N 55°43' E 014°38'611.0
2017-Jun-15 09:31N 55°38' E 014°38'611.1
2017-Jun-15 09:00N 55°32' E 014°38'511.1
2017-Jun-15 08:31N 55°27' E 014°38'510.5
2017-Jun-15 08:00N 55°22' E 014°35'611.1
2017-Jun-15 07:31N 55°17' E 014°30'611.2
2017-Jun-15 07:00N 55°12' E 014°24'611.2
2017-Jun-15 06:31N 55°08' E 014°18'611.1
2017-Jun-15 06:00N 55°03' E 014°12'510.6
2017-Jun-15 05:30N 54°60' E 014°05'510.5
2017-Jun-15 05:00N 54°55' E 014°01'510.8
2017-Jun-15 04:30N 54°50' E 013°59'611.1
2017-Jun-15 03:59N 54°44' E 014°01'510.7
2017-Jun-15 03:30N 54°39' E 014°03'510.8
2017-Jun-15 03:00N 54°34' E 014°04'50 9.9
2017-Jun-14 21:59N 53°45' E 014°24'510.2
2017-Jun-14 21:30N 53°42' E 014°30'510.1
2017-Jun-14 21:00N 53°38' E 014°35'7 9.7
2017-Jun-14 20:17N 53°31' E 014°38'3 8.3
2017-Jun-14 19:59N 53°29' E 014°37'3 3.9
2017-Jun-14 19:19N 53°26' E 014°35'0 0.0
2017-Jun-14 17:40N 53°26' E 014°35'0 0.0
2017-Jun-14 17:22N 53°26' E 014°35'0 0.0
2017-Jun-14 15:19N 53°26' E 014°35'0 0.0
2017-Jun-14 14:58N 53°26' E 014°35'0 0.0
2017-Jun-14 13:55N 53°26' E 014°35'0 0.0
2017-Jun-14 12:17N 53°26' E 014°35'0 0.2
2017-Jun-14 11:58N 53°26' E 014°35'4 6.7
2017-Jun-14 11:26N 53°30' E 014°37'5 8.6
2017-Jun-14 10:48N 53°35' E 014°36'3 9.5
2017-Jun-14 10:30N 53°38' E 014°35'5 9.6
2017-Jun-14 10:00N 53°41' E 014°30'510.0
2017-Jun-14 09:30N 53°45' E 014°25'77 9.1
2017-Jun-14 01:02N 54°43' E 012°56'011.0
2017-Jun-14 01:00N 54°43' E 012°55'510.9
2017-Jun-14 00:30N 54°42' E 012°46'2110.6
2017-Jun-13 22:32N 54°30' E 012°16'010.6
2017-Jun-13 22:30N 54°30' E 012°16'510.5
2017-Jun-13 22:00N 54°25' E 012°11'510.9
2017-Jun-13 21:30N 54°24' E 012°02'611.1
2017-Jun-13 21:00N 54°24' E 011°52'1911.5
2017-Jun-13 19:23N 54°31' E 011°23'411.2
2017-Jun-13 19:00N 54°33' E 011°16'510.8
2017-Jun-13 18:30N 54°34' E 011°07'611.6
2017-Jun-13 18:00N 54°34' E 010°57'  
Track history (hours):
 
Tides and Currents Weather Stations Pressure Air Temp Water Temp Dewpoint Dewpoint Depression Visibility Wind Speed Wind Dir Waves Ship Positions

Jolyn

Last reported at 2017-Jun-23 08:27 UTC. Time now 2017-Jun-23 08:42 UTC.
Position N 53°29' E 014°37'.

Length 89 m; draft 5.6 m.

Type: Cargo ship. MMSI: 306813000.

Date/timePositionNaut miles runAvg speedWind from/ knotsBaromVisibWave heightAir tempDewpointWater temp
2017-Jun-23 08:27N 53°29' E 014°37'0 0.0
2017-Jun-23 08:00N 53°29' E 014°37'0 0.0
2017-Jun-23 07:30N 53°29' E 014°37'0 0.0
2017-Jun-23 07:00N 53°29' E 014°37'0 0.0
2017-Jun-23 06:30N 53°29' E 014°37'0 0.0
2017-Jun-23 06:00N 53°29' E 014°37'0 0.0
2017-Jun-23 05:27N 53°29' E 014°37'0 0.0
2017-Jun-23 05:00N 53°29' E 014°37'0 0.0
2017-Jun-23 04:30N 53°29' E 014°37'0 0.0
2017-Jun-23 04:00N 53°29' E 014°37'0 0.0
2017-Jun-23 03:27N 53°29' E 014°37'0 0.0
2017-Jun-23 02:57N 53°29' E 014°37'0 0.0
2017-Jun-23 02:27N 53°29' E 014°37'0 0.0
2017-Jun-23 02:00N 53°29' E 014°37'0 0.0
2017-Jun-23 01:27N 53°29' E 014°37'0 0.0
2017-Jun-23 00:57N 53°29' E 014°37'0 0.0
2017-Jun-23 00:24N 53°29' E 014°37'0 0.0
2017-Jun-23 00:00N 53°29' E 014°37'0 0.0
2017-Jun-22 23:30N 53°29' E 014°37'0 0.0
2017-Jun-22 23:00N 53°29' E 014°37'0 0.0
2017-Jun-22 22:30N 53°29' E 014°37'0 0.0
2017-Jun-22 22:00N 53°29' E 014°37'0 0.0
2017-Jun-22 21:30N 53°29' E 014°37'0 0.0
2017-Jun-22 21:00N 53°29' E 014°37'0 0.0
2017-Jun-22 20:30N 53°29' E 014°37'0 0.0
2017-Jun-22 20:00N 53°29' E 014°37'0 0.0
2017-Jun-22 19:30N 53°29' E 014°37'0 0.0
2017-Jun-22 19:00N 53°29' E 014°37'0 0.0
2017-Jun-22 18:30N 53°29' E 014°37'0 0.0
2017-Jun-22 18:00N 53°29' E 014°37'0 0.0
2017-Jun-22 17:30N 53°29' E 014°37'0 0.0
2017-Jun-22 17:00N 53°29' E 014°37'0 0.0
2017-Jun-22 16:30N 53°29' E 014°37'40 7.4
2017-Jun-22 11:05N 54°08' E 014°28'6 8.7
2017-Jun-22 10:22N 54°14' E 014°34'18 9.7
2017-Jun-22 08:30N 54°28' E 014°53'510.1
2017-Jun-22 07:59N 54°32' E 014°59'510.2
2017-Jun-22 07:30N 54°36' E 015°04'510.1
2017-Jun-22 07:00N 54°40' E 015°09'510.1
2017-Jun-22 06:30N 54°44' E 015°14'810.0
2017-Jun-22 05:45N 54°50' E 015°22'3 9.9
2017-Jun-22 05:29N 54°52' E 015°25'710.0
2017-Jun-22 04:50N 54°57' E 015°32'610.2
2017-Jun-22 04:16N 55°02' E 015°38'410.4
2017-Jun-22 03:54N 55°05' E 015°42'610.7
2017-Jun-22 03:17N 55°10' E 015°49'410.3
2017-Jun-22 02:53N 55°13' E 015°54'410.1
2017-Jun-22 02:30N 55°16' E 015°58'510.0
2017-Jun-22 02:00N 55°20' E 016°04'510.0
2017-Jun-22 01:30N 55°24' E 016°09'5 9.9
2017-Jun-22 01:00N 55°28' E 016°15'510.0
2017-Jun-22 00:30N 55°32' E 016°20'510.0
2017-Jun-22 00:00N 55°36' E 016°25'5 9.9
2017-Jun-21 23:30N 55°39' E 016°31'5 9.9
2017-Jun-21 23:00N 55°43' E 016°36'5 9.8
2017-Jun-21 22:30N 55°47' E 016°41'5 9.7
2017-Jun-21 22:00N 55°51' E 016°47'5 9.6
2017-Jun-21 21:30N 55°55' E 016°52'5 9.6
2017-Jun-21 21:00N 55°59' E 016°57'5 9.6
2017-Jun-21 20:30N 56°02' E 017°03'7 9.5
2017-Jun-21 19:47N 56°08' E 017°10'3 9.4
2017-Jun-21 19:28N 56°10' E 017°14'4 9.4
2017-Jun-21 19:00N 56°13' E 017°19'5 9.5
2017-Jun-21 18:29N 56°16' E 017°26'5 9.7
2017-Jun-21 17:58N 56°20' E 017°32'5 9.8
2017-Jun-21 17:28N 56°24' E 017°38'510.0
2017-Jun-21 17:00N 56°27' E 017°44'610.0
2017-Jun-21 16:25N 56°31' E 017°52'410.0
2017-Jun-21 16:00N 56°34' E 017°57'15210.3
2017-Jun-21 01:17N 58°35' E 020°49'410.5
2017-Jun-21 00:54N 58°38' E 020°54'410.6
2017-Jun-21 00:30N 58°41' E 020°59'510.6
2017-Jun-21 00:00N 58°45' E 021°05'510.4
2017-Jun-20 23:30N 58°49' E 021°12'510.4
2017-Jun-20 23:00N 58°53' E 021°18'510.2
2017-Jun-20 22:30N 58°57' E 021°24'510.0
2017-Jun-20 22:00N 59°01' E 021°30'5 9.9
2017-Jun-20 21:31N 59°05' E 021°36'5 9.7
2017-Jun-20 21:00N 59°09' E 021°42'5 9.5
2017-Jun-20 20:30N 59°12' E 021°49'5 9.2
2017-Jun-20 20:00N 59°15' E 021°55'5 9.1
2017-Jun-20 19:30N 59°18' E 022°02'5 9.4
2017-Jun-20 19:00N 59°21' E 022°10'5 9.5
2017-Jun-20 18:30N 59°24' E 022°17'5 9.7
2017-Jun-20 18:00N 59°27' E 022°25'5 9.5
2017-Jun-20 17:30N 59°29' E 022°33'5 9.4
2017-Jun-20 17:01N 59°31' E 022°41'5 9.6
2017-Jun-20 16:30N 59°33' E 022°50'5 9.2
2017-Jun-20 16:00N 59°35' E 022°58'4 8.9
2017-Jun-20 15:30N 59°36' E 023°07'4 8.8
2017-Jun-20 15:01N 59°37' E 023°15'9 9.1
2017-Jun-20 14:00N 59°40' E 023°32'4 8.9
2017-Jun-20 13:31N 59°42' E 023°40'4 8.9
2017-Jun-20 13:00N 59°44' E 023°48'5 9.0
2017-Jun-20 12:30N 59°46' E 023°56'5 9.0
2017-Jun-20 12:00N 59°47' E 024°05'5 9.1
2017-Jun-20 11:30N 59°49' E 024°13'5 9.2
2017-Jun-20 11:00N 59°51' E 024°22'5 9.3
2017-Jun-20 10:30N 59°52' E 024°30'5 9.4
2017-Jun-20 10:00N 59°54' E 024°39'5 9.4
2017-Jun-20 09:31N 59°55' E 024°48'5 9.6
2017-Jun-20 09:01N 59°56' E 024°58'5 9.8
2017-Jun-20 08:31N 59°56' E 025°07'510.1
2017-Jun-20 08:00N 59°56' E 025°18'510.4
2017-Jun-20 07:31N 59°55' E 025°28'510.3
2017-Jun-20 07:00N 59°55' E 025°38'510.2
2017-Jun-20 06:31N 59°56' E 025°48'510.2
2017-Jun-20 06:00N 59°57' E 025°58'510.2
2017-Jun-20 05:31N 59°58' E 026°08'510.2
2017-Jun-20 05:01N 59°59' E 026°18'510.2
2017-Jun-20 04:30N 60°01' E 026°28'510.0
2017-Jun-20 04:00N 60°01' E 026°38'510.3
2017-Jun-20 03:30N 60°01' E 026°48'510.2
2017-Jun-20 03:00N 59°60' E 026°58'5 9.8
2017-Jun-20 02:30N 60°01' E 027°08'510.4
2017-Jun-20 02:01N 60°04' E 027°16'510.3
2017-Jun-20 01:30N 60°06' E 027°25'510.1
2017-Jun-20 01:00N 60°09' E 027°34'510.1
2017-Jun-20 00:30N 60°11' E 027°43'5 9.3
2017-Jun-20 00:00N 60°11' E 027°52'510.0
2017-Jun-19 23:30N 60°10' E 028°02'4 8.7
2017-Jun-19 23:00N 60°06' E 028°07'510.1
2017-Jun-19 22:30N 60°01' E 028°09'510.0
2017-Jun-19 22:01N 59°56' E 028°11'5 9.9
2017-Jun-19 21:31N 59°51' E 028°12'5 9.8
2017-Jun-19 21:01N 59°47' E 028°14'4 9.0
2017-Jun-19 20:30N 59°43' E 028°18'3 6.0
2017-Jun-19 20:00N 59°43' E 028°24'1 2.7
2017-Jun-19 19:27N 59°42' E 028°26'0 0.0
2017-Jun-19 19:00N 59°42' E 028°26'0 0.0
2017-Jun-19 18:30N 59°42' E 028°26'0 0.0
2017-Jun-19 18:00N 59°42' E 028°26'0 0.0
2017-Jun-19 17:30N 59°42' E 028°26'0 0.0
2017-Jun-19 17:00N 59°42' E 028°26'0 0.0
2017-Jun-19 16:30N 59°42' E 028°26'0 0.0
2017-Jun-19 16:00N 59°42' E 028°26'0 0.0
2017-Jun-19 15:30N 59°42' E 028°26'0 0.0
2017-Jun-19 15:00N 59°42' E 028°26'0 0.0
2017-Jun-19 14:00N 59°42' E 028°26'0 0.0
2017-Jun-19 13:30N 59°42' E 028°26'0 0.0
2017-Jun-19 13:00N 59°42' E 028°26'0 0.0
2017-Jun-19 12:30N 59°42' E 028°26'0 0.0
2017-Jun-19 12:00N 59°42' E 028°26'0 0.0
2017-Jun-19 11:30N 59°42' E 028°26'0 0.0
2017-Jun-19 11:00N 59°42' E 028°26'0 0.0
2017-Jun-19 10:30N 59°42' E 028°26'0 0.0
2017-Jun-19 09:59N 59°42' E 028°26'0 0.0
2017-Jun-19 09:30N 59°42' E 028°26'0 0.0
2017-Jun-19 08:59N 59°42' E 028°26'0 0.0
2017-Jun-19 08:30N 59°42' E 028°26'0 0.0
2017-Jun-19 08:00N 59°42' E 028°26'0 0.0
2017-Jun-19 07:30N 59°42' E 028°26'0 0.0
2017-Jun-19 07:00N 59°42' E 028°26'2 4.4
2017-Jun-19 06:30N 59°42' E 028°21'4 8.0
2017-Jun-19 06:00N 59°45' E 028°15'510.7
2017-Jun-19 05:30N 59°50' E 028°11'611.3
2017-Jun-19 05:00N 59°55' E 028°09'611.3
2017-Jun-19 04:30N 60°01' E 028°07'611.4
2017-Jun-19 04:00N 60°06' E 028°05'5 9.8
2017-Jun-19 03:30N 60°09' E 027°57'611.2
2017-Jun-19 03:00N 60°11' E 027°46'611.5
2017-Jun-19 02:30N 60°08' E 027°36'611.4
2017-Jun-19 02:00N 60°05' E 027°27'611.3
2017-Jun-19 01:30N 60°02' E 027°17'611.3
2017-Jun-19 01:00N 59°59' E 027°07'510.5
2017-Jun-19 00:30N 59°58' E 026°57'611.3
2017-Jun-19 00:00N 59°59' E 026°46'510.9
2017-Jun-18 23:30N 59°59' E 026°35'611.1
2017-Jun-18 23:00N 59°57' E 026°24'611.3
2017-Jun-18 22:30N 59°55' E 026°14'611.2
2017-Jun-18 22:00N 59°53' E 026°03'611.2
2017-Jun-18 21:30N 59°51' E 025°53'611.4
2017-Jun-18 21:00N 59°49' E 025°42'611.2
2017-Jun-18 20:30N 59°47' E 025°32'611.5
2017-Jun-18 20:00N 59°47' E 025°20'611.6
2017-Jun-18 19:30N 59°47' E 025°09'611.5
2017-Jun-18 19:00N 59°46' E 024°57'611.3
2017-Jun-18 18:30N 59°45' E 024°47'611.4
2017-Jun-18 18:00N 59°42' E 024°36'510.6
2017-Jun-18 17:30N 59°39' E 024°28'5 9.9
2017-Jun-18 17:00N 59°34' E 024°25'510.1
2017-Jun-18 16:30N 59°31' E 024°32'5 9.7
2017-Jun-18 16:00N 59°27' E 024°39'1 1.5
2017-Jun-18 15:30N 59°27' E 024°40'0 0.0
2017-Jun-18 15:00N 59°27' E 024°40'0 0.0
2017-Jun-18 14:30N 59°27' E 024°40'0 0.0
2017-Jun-18 14:00N 59°27' E 024°40'0 0.0
2017-Jun-18 13:27N 59°27' E 024°40'0 0.0
2017-Jun-18 12:57N 59°27' E 024°40'0 0.0
2017-Jun-18 12:30N 59°27' E 024°40'0 0.0
2017-Jun-18 11:57N 59°27' E 024°40'0 0.0
2017-Jun-18 11:30N 59°27' E 024°40'0 0.0
2017-Jun-18 11:00N 59°27' E 024°40'0 0.0
2017-Jun-18 10:27N 59°27' E 024°40'0 0.0
2017-Jun-18 10:00N 59°27' E 024°40'0 0.0
2017-Jun-18 09:30N 59°27' E 024°40'0 0.0
2017-Jun-18 09:00N 59°27' E 024°40'0 0.0
2017-Jun-18 08:30N 59°27' E 024°40'0 0.0
2017-Jun-18 08:00N 59°27' E 024°40'0 0.0
2017-Jun-18 07:30N 59°27' E 024°40'0 0.1
2017-Jun-18 07:00N 59°27' E 024°40'1 2.8
2017-Jun-18 06:30N 59°28' E 024°38'4 8.9
2017-Jun-18 06:00N 59°30' E 024°30'4 7.9
2017-Jun-18 05:30N 59°30' E 024°22'4 7.2
2017-Jun-18 05:00N 59°29' E 024°15'4 7.3
2017-Jun-18 04:30N 59°29' E 024°08'4 7.4
2017-Jun-18 04:00N 59°29' E 024°01'4 7.7
2017-Jun-18 03:30N 59°28' E 023°53'4 8.7
2017-Jun-18 03:01N 59°28' E 023°45'4 9.0
2017-Jun-18 02:30N 59°28' E 023°36'5 9.1
2017-Jun-18 02:01N 59°27' E 023°27'4 9.0
2017-Jun-18 01:31N 59°27' E 023°18'4 8.8
2017-Jun-18 01:01N 59°26' E 023°10'4 8.7
2017-Jun-18 00:31N 59°26' E 023°01'4 8.9
2017-Jun-18 00:00N 59°25' E 022°52'5 9.1
2017-Jun-17 23:31N 59°25' E 022°43'4 8.5
2017-Jun-17 23:01N 59°24' E 022°36'4 8.8
2017-Jun-17 22:31N 59°21' E 022°29'4 8.7
2017-Jun-17 22:00N 59°18' E 022°22'4 8.9
2017-Jun-17 21:30N 59°15' E 022°15'4 8.8
2017-Jun-17 21:01N 59°13' E 022°08'4 8.8
2017-Jun-17 20:31N 59°10' E 022°02'4 8.7
2017-Jun-17 20:01N 59°07' E 021°55'510.1
2017-Jun-17 19:31N 59°04' E 021°47'5 9.7
2017-Jun-17 19:00N 59°00' E 021°42'510.3
2017-Jun-17 18:30N 58°56' E 021°36'510.3
2017-Jun-17 18:01N 58°52' E 021°29'510.4
2017-Jun-17 17:31N 58°48' E 021°23'510.5
2017-Jun-17 17:01N 58°44' E 021°17'510.6
2017-Jun-17 16:31N 58°40' E 021°11'510.6
2017-Jun-17 16:00N 58°35' E 021°04'510.6
2017-Jun-17 15:30N 58°31' E 020°58'710.5
2017-Jun-17 14:49N 58°26' E 020°50'410.4
2017-Jun-17 14:25N 58°22' E 020°45'17010.3
2017-Jun-16 21:54N 56°16' E 017°13'610.8
2017-Jun-16 21:23N 56°13' E 017°05'410.5
2017-Jun-16 21:00N 56°10' E 016°60'610.5
2017-Jun-16 20:28N 56°07' E 016°52'510.6
2017-Jun-16 20:00N 56°04' E 016°45'510.6
2017-Jun-16 19:30N 56°01' E 016°37'510.5
2017-Jun-16 19:00N 55°59' E 016°28'510.5
2017-Jun-16 18:30N 55°57' E 016°19'510.8
2017-Jun-16 18:00N 55°56' E 016°10'510.5
2017-Jun-16 17:30N 55°55' E 016°01'510.6
2017-Jun-16 17:00N 55°53' E 015°52'510.6
2017-Jun-16 16:30N 55°53' E 015°43'510.6
2017-Jun-16 16:00N 55°53' E 015°33'510.6
2017-Jun-16 15:30N 55°53' E 015°24'510.5
2017-Jun-16 15:00N 55°53' E 015°14'1010.1
2017-Jun-16 14:00N 55°54' E 014°56'5 9.8
2017-Jun-16 13:30N 55°55' E 014°48'7 9.6
2017-Jun-16 12:48N 55°58' E 014°37'3 9.1
2017-Jun-16 12:29N 55°60' E 014°33'2 0.3
2017-Jun-16 04:20N 56°02' E 014°35'0 0.0
2017-Jun-16 03:44N 56°02' E 014°35'0 0.0
2017-Jun-16 03:26N 56°02' E 014°35'0 0.0
2017-Jun-16 02:56N 56°02' E 014°35'0 0.0
2017-Jun-16 02:26N 56°02' E 014°35'0 0.0
2017-Jun-16 01:56N 56°02' E 014°35'0 0.0
2017-Jun-16 01:29N 56°02' E 014°35'0 0.0
2017-Jun-16 00:59N 56°02' E 014°35'0 0.0
2017-Jun-16 00:29N 56°02' E 014°35'0 0.0
2017-Jun-15 23:56N 56°02' E 014°35'0 0.0
2017-Jun-15 23:26N 56°02' E 014°35'0 0.0
2017-Jun-15 22:59N 56°02' E 014°35'0 0.0
2017-Jun-15 22:27N 56°02' E 014°35'0 0.0
2017-Jun-15 21:56N 56°02' E 014°35'0 0.0
2017-Jun-15 21:29N 56°02' E 014°35'0 0.0
2017-Jun-15 20:35N 56°02' E 014°35'0 0.0
2017-Jun-15 20:27N 56°02' E 014°35'0 0.0
2017-Jun-15 19:56N 56°02' E 014°35'0 0.0
2017-Jun-15 19:29N 56°02' E 014°35'0 0.0
2017-Jun-15 18:59N 56°02' E 014°35'0 0.0
2017-Jun-15 18:29N 56°02' E 014°35'0 0.0
2017-Jun-15 17:59N 56°02' E 014°35'0 0.0
2017-Jun-15 17:26N 56°02' E 014°35'0 0.0
2017-Jun-15 16:59N 56°02' E 014°35'0 0.0
2017-Jun-15 16:29N 56°02' E 014°35'0 0.0
2017-Jun-15 15:59N 56°02' E 014°35'0 0.0
2017-Jun-15 15:23N 56°02' E 014°35'0 0.0
2017-Jun-15 13:44N 56°02' E 014°35'0 0.0
2017-Jun-15 13:30N 56°02' E 014°35'0 0.0
2017-Jun-15 13:01N 56°02' E 014°35'0 0.0
2017-Jun-15 12:30N 56°02' E 014°35'0 0.5
2017-Jun-15 12:00N 56°02' E 014°35'3 6.7
2017-Jun-15 11:30N 55°58' E 014°35'5 9.5
2017-Jun-15 11:00N 55°54' E 014°38'511.1
2017-Jun-15 10:30N 55°49' E 014°38'611.0
2017-Jun-15 10:00N 55°43' E 014°38'611.0
2017-Jun-15 09:31N 55°38' E 014°38'611.1
2017-Jun-15 09:00N 55°32' E 014°38'511.1
2017-Jun-15 08:31N 55°27' E 014°38'510.5
2017-Jun-15 08:00N 55°22' E 014°35'611.1
2017-Jun-15 07:31N 55°17' E 014°30'611.2
2017-Jun-15 07:00N 55°12' E 014°24'611.2
2017-Jun-15 06:31N 55°08' E 014°18'611.1
2017-Jun-15 06:00N 55°03' E 014°12'510.6
2017-Jun-15 05:30N 54°60' E 014°05'510.5
2017-Jun-15 05:00N 54°55' E 014°01'510.8
2017-Jun-15 04:30N 54°50' E 013°59'611.1
2017-Jun-15 03:59N 54°44' E 014°01'510.7
2017-Jun-15 03:30N 54°39' E 014°03'510.8
2017-Jun-15 03:00N 54°34' E 014°04'50 9.9
2017-Jun-14 21:59N 53°45' E 014°24'510.2
2017-Jun-14 21:30N 53°42' E 014°30'510.1
2017-Jun-14 21:00N 53°38' E 014°35'7 9.7
2017-Jun-14 20:17N 53°31' E 014°38'3 8.3
2017-Jun-14 19:59N 53°29' E 014°37'3 3.9
2017-Jun-14 19:19N 53°26' E 014°35'0 0.0
2017-Jun-14 17:40N 53°26' E 014°35'0 0.0
2017-Jun-14 17:22N 53°26' E 014°35'0 0.0
2017-Jun-14 15:19N 53°26' E 014°35'0 0.0
2017-Jun-14 14:58N 53°26' E 014°35'0 0.0
2017-Jun-14 13:55N 53°26' E 014°35'0 0.0
2017-Jun-14 12:17N 53°26' E 014°35'0 0.2
2017-Jun-14 11:58N 53°26' E 014°35'4 6.7
2017-Jun-14 11:26N 53°30' E 014°37'5 8.6
2017-Jun-14 10:48N 53°35' E 014°36'3 9.5
2017-Jun-14 10:30N 53°38' E 014°35'5 9.6
2017-Jun-14 10:00N 53°41' E 014°30'510.0
2017-Jun-14 09:30N 53°45' E 014°25'77 9.1
2017-Jun-14 01:02N 54°43' E 012°56'011.0
2017-Jun-14 01:00N 54°43' E 012°55'510.9
2017-Jun-14 00:30N 54°42' E 012°46'2110.6
2017-Jun-13 22:32N 54°30' E 012°16'010.6
2017-Jun-13 22:30N 54°30' E 012°16'510.5
2017-Jun-13 22:00N 54°25' E 012°11'510.9
2017-Jun-13 21:30N 54°24' E 012°02'611.1
2017-Jun-13 21:00N 54°24' E 011°52'1911.5
2017-Jun-13 19:23N 54°31' E 011°23'411.2
2017-Jun-13 19:00N 54°33' E 011°16'510.8
2017-Jun-13 18:30N 54°34' E 011°07'611.6
2017-Jun-13 18:00N 54°34' E 010°57'  

Dump ship's entire track history